sensor_id;sensor_type;location;lat;lon;timestamp;P1;durP1;ratioP1;P2;durP2;ratioP2
69917;SDS011;57203;42.672;23.334;2023-04-25T00:00:06;5.4;;;4.1;;
69917;SDS011;57203;42.672;23.334;2023-04-25T00:01:05;4.7;;;3.8;;
69917;SDS011;57203;42.672;23.334;2023-04-25T00:02:06;4.1;;;3.7;;
69917;SDS011;57203;42.672;23.334;2023-04-25T00:03:06;4.1;;;3.5;;
69917;SDS011;57203;42.672;23.334;2023-04-25T00:04:06;3.9;;;3.3;;
69917;SDS011;57203;42.672;23.334;2023-04-25T00:05:06;4.4;;;3.7;;
69917;SDS011;57203;42.672;23.334;2023-04-25T00:06:06;4.4;;;3.6;;
69917;SDS011;57203;42.672;23.334;2023-04-25T00:08:07;4.3;;;3.4;;
69917;SDS011;57203;42.672;23.334;2023-04-25T00:09:07;5.1;;;3.6;;
69917;SDS011;57203;42.672;23.334;2023-04-25T00:10:08;5.4;;;3.4;;
69917;SDS011;57203;42.672;23.334;2023-04-25T00:11:07;5.2;;;3.8;;
69917;SDS011;57203;42.672;23.334;2023-04-25T00:12:08;5.2;;;3.5;;
69917;SDS011;57203;42.672;23.334;2023-04-25T00:13:08;4.2;;;3.9;;
69917;SDS011;57203;42.672;23.334;2023-04-25T00:14:08;5.1;;;3.8;;
69917;SDS011;57203;42.672;23.334;2023-04-25T00:15:08;5.1;;;3.4;;
69917;SDS011;57203;42.672;23.334;2023-04-25T00:16:08;4.6;;;3.8;;
69917;SDS011;57203;42.672;23.334;2023-04-25T00:17:09;4.5;;;3.6;;
69917;SDS011;57203;42.672;23.334;2023-04-25T00:18:09;4.5;;;3.5;;
69917;SDS011;57203;42.672;23.334;2023-04-25T00:19:09;6.5;;;3.9;;
69917;SDS011;57203;42.672;23.334;2023-04-25T00:21:09;4.6;;;4.1;;
69917;SDS011;57203;42.672;23.334;2023-04-25T00:22:10;4.3;;;3.7;;
69917;SDS011;57203;42.672;23.334;2023-04-25T00:23:10;4.3;;;4.0;;
69917;SDS011;57203;42.672;23.334;2023-04-25T00:24:10;4.4;;;4.6;;
69917;SDS011;57203;42.672;23.334;2023-04-25T00:25:10;5.6;;;3.9;;
69917;SDS011;57203;42.672;23.334;2023-04-25T00:26:10;5.5;;;4.3;;
69917;SDS011;57203;42.672;23.334;2023-04-25T00:27:10;5.5;;;4.0;;
69917;SDS011;57203;42.672;23.334;2023-04-25T00:28:11;5.1;;;4.1;;
69917;SDS011;57203;42.672;23.334;2023-04-25T00:29:11;6.1;;;4.2;;
69917;SDS011;57203;42.672;23.334;2023-04-25T00:31:11;6.2;;;4.4;;
69917;SDS011;57203;42.672;23.334;2023-04-25T00:33:12;6.6;;;4.5;;
69917;SDS011;57203;42.672;23.334;2023-04-25T00:34:12;5.5;;;4.3;;
69917;SDS011;57203;42.672;23.334;2023-04-25T00:35:12;5.0;;;4.5;;
69917;SDS011;57203;42.672;23.334;2023-04-25T00:36:12;6.6;;;4.2;;
69917;SDS011;57203;42.672;23.334;2023-04-25T00:37:12;5.0;;;4.1;;
69917;SDS011;57203;42.672;23.334;2023-04-25T00:38:13;5.0;;;5.0;;
69917;SDS011;57203;42.672;23.334;2023-04-25T00:39:13;6.8;;;4.8;;
69917;SDS011;57203;42.672;23.334;2023-04-25T00:40:13;8.3;;;5.1;;
69917;SDS011;57203;42.672;23.334;2023-04-25T00:41:13;7.9;;;5.3;;
69917;SDS011;57203;42.672;23.334;2023-04-25T00:42:13;7.9;;;5.2;;
69917;SDS011;57203;42.672;23.334;2023-04-25T00:43:14;8.2;;;5.1;;
69917;SDS011;57203;42.672;23.334;2023-04-25T00:44:14;8.1;;;5.0;;
69917;SDS011;57203;42.672;23.334;2023-04-25T00:45:14;6.4;;;4.8;;
69917;SDS011;57203;42.672;23.334;2023-04-25T00:46:14;7.3;;;5.1;;
69917;SDS011;57203;42.672;23.334;2023-04-25T00:47:15;7.3;;;4.9;;
69917;SDS011;57203;42.672;23.334;2023-04-25T00:49:15;6.9;;;5.0;;
69917;SDS011;57203;42.672;23.334;2023-04-25T00:50:15;6.9;;;4.8;;
69917;SDS011;57203;42.672;23.334;2023-04-25T00:51:16;6.9;;;5.5;;
69917;SDS011;57203;42.672;23.334;2023-04-25T00:52:15;7.6;;;4.8;;
69917;SDS011;57203;42.672;23.334;2023-04-25T00:53:16;7.6;;;4.9;;
69917;SDS011;57203;42.672;23.334;2023-04-25T00:54:16;7.6;;;4.8;;
69917;SDS011;57203;42.672;23.334;2023-04-25T00:55:16;6.5;;;4.9;;
69917;SDS011;57203;42.672;23.334;2023-04-25T00:56:16;8.1;;;5.0;;
69917;SDS011;57203;42.672;23.334;2023-04-25T00:58:17;8.8;;;5.3;;
69917;SDS011;57203;42.672;23.334;2023-04-25T00:59:17;7.7;;;5.5;;
69917;SDS011;57203;42.672;23.334;2023-04-25T01:00:17;9.1;;;5.1;;
69917;SDS011;57203;42.672;23.334;2023-04-25T01:01:17;7.4;;;5.5;;
69917;SDS011;57203;42.672;23.334;2023-04-25T01:02:17;9.3;;;5.2;;
69917;SDS011;57203;42.672;23.334;2023-04-25T01:03:18;8.7;;;5.4;;
69917;SDS011;57203;42.672;23.334;2023-04-25T01:04:18;7.9;;;5.6;;
69917;SDS011;57203;42.672;23.334;2023-04-25T01:05:18;9.3;;;6.2;;
69917;SDS011;57203;42.672;23.334;2023-04-25T01:06:18;8.9;;;5.8;;
69917;SDS011;57203;42.672;23.334;2023-04-25T01:07:18;8.2;;;5.7;;
69917;SDS011;57203;42.672;23.334;2023-04-25T01:09:19;9.5;;;5.9;;
69917;SDS011;57203;42.672;23.334;2023-04-25T01:10:19;8.9;;;6.1;;
69917;SDS011;57203;42.672;23.334;2023-04-25T01:11:19;8.9;;;5.8;;
69917;SDS011;57203;42.672;23.334;2023-04-25T01:12:19;10.0;;;5.9;;
69917;SDS011;57203;42.672;23.334;2023-04-25T01:13:19;10.0;;;6.4;;
69917;SDS011;57203;42.672;23.334;2023-04-25T01:14:20;8.8;;;6.1;;
69917;SDS011;57203;42.672;23.334;2023-04-25T01:15:20;8.7;;;5.8;;
69917;SDS011;57203;42.672;23.334;2023-04-25T01:16:20;8.8;;;6.3;;
69917;SDS011;57203;42.672;23.334;2023-04-25T01:17:20;7.8;;;5.5;;
69917;SDS011;57203;42.672;23.334;2023-04-25T01:18:20;7.8;;;5.7;;
69917;SDS011;57203;42.672;23.334;2023-04-25T01:19:21;8.5;;;5.9;;
69917;SDS011;57203;42.672;23.334;2023-04-25T01:20:21;9.5;;;6.0;;
69917;SDS011;57203;42.672;23.334;2023-04-25T01:21:21;8.8;;;5.7;;
69917;SDS011;57203;42.672;23.334;2023-04-25T01:22:21;8.8;;;6.1;;
69917;SDS011;57203;42.672;23.334;2023-04-25T01:23:22;9.2;;;5.4;;
69917;SDS011;57203;42.672;23.334;2023-04-25T01:24:22;7.6;;;5.6;;
69917;SDS011;57203;42.672;23.334;2023-04-25T01:25:22;8.4;;;5.4;;
69917;SDS011;57203;42.672;23.334;2023-04-25T01:26:22;8.0;;;5.6;;
69917;SDS011;57203;42.672;23.334;2023-04-25T01:27:22;9.6;;;5.7;;
69917;SDS011;57203;42.672;23.334;2023-04-25T01:28:22;9.2;;;5.6;;
69917;SDS011;57203;42.672;23.334;2023-04-25T01:29:22;8.4;;;5.4;;
69917;SDS011;57203;42.672;23.334;2023-04-25T01:30:23;8.8;;;6.1;;
69917;SDS011;57203;42.672;23.334;2023-04-25T01:31:23;8.8;;;5.9;;
69917;SDS011;57203;42.672;23.334;2023-04-25T01:32:23;8.4;;;5.3;;
69917;SDS011;57203;42.672;23.334;2023-04-25T01:33:23;8.5;;;6.0;;
69917;SDS011;57203;42.672;23.334;2023-04-25T01:34:23;10.1;;;5.3;;
69917;SDS011;57203;42.672;23.334;2023-04-25T01:35:23;8.9;;;5.5;;
69917;SDS011;57203;42.672;23.334;2023-04-25T01:36:24;8.6;;;5.6;;
69917;SDS011;57203;42.672;23.334;2023-04-25T01:37:24;7.5;;;5.4;;
69917;SDS011;57203;42.672;23.334;2023-04-25T01:38:24;7.8;;;5.2;;
69917;SDS011;57203;42.672;23.334;2023-04-25T01:40:24;7.1;;;5.1;;
69917;SDS011;57203;42.672;23.334;2023-04-25T01:41:25;6.6;;;5.2;;
69917;SDS011;57203;42.672;23.334;2023-04-25T01:42:25;7.5;;;5.4;;
69917;SDS011;57203;42.672;23.334;2023-04-25T01:43:25;9.6;;;5.1;;
69917;SDS011;57203;42.672;23.334;2023-04-25T01:44:25;7.6;;;5.3;;
69917;SDS011;57203;42.672;23.334;2023-04-25T01:45:25;7.1;;;5.1;;
69917;SDS011;57203;42.672;23.334;2023-04-25T01:46:26;7.6;;;5.2;;
69917;SDS011;57203;42.672;23.334;2023-04-25T01:47:26;7.4;;;4.9;;
69917;SDS011;57203;42.672;23.334;2023-04-25T01:48:26;7.9;;;5.0;;
69917;SDS011;57203;42.672;23.334;2023-04-25T01:49:26;8.6;;;5.1;;
69917;SDS011;57203;42.672;23.334;2023-04-25T01:50:26;7.5;;;4.9;;
69917;SDS011;57203;42.672;23.334;2023-04-25T01:51:26;6.7;;;5.1;;
69917;SDS011;57203;42.672;23.334;2023-04-25T01:52:27;6.7;;;5.6;;
69917;SDS011;57203;42.672;23.334;2023-04-25T01:53:27;9.4;;;5.1;;
69917;SDS011;57203;42.672;23.334;2023-04-25T01:54:27;7.1;;;5.3;;
69917;SDS011;57203;42.672;23.334;2023-04-25T01:55:27;7.6;;;5.5;;
69917;SDS011;57203;42.672;23.334;2023-04-25T01:56:29;7.6;;;5.9;;
69917;SDS011;57203;42.672;23.334;2023-04-25T01:57:28;6.9;;;4.9;;
69917;SDS011;57203;42.672;23.334;2023-04-25T01:58:28;6.9;;;5.4;;
69917;SDS011;57203;42.672;23.334;2023-04-25T01:59:28;8.9;;;4.4;;
69917;SDS011;57203;42.672;23.334;2023-04-25T02:00:28;6.3;;;4.6;;
69917;SDS011;57203;42.672;23.334;2023-04-25T02:01:28;6.3;;;5.2;;
69917;SDS011;57203;42.672;23.334;2023-04-25T02:02:29;6.1;;;4.3;;
69917;SDS011;57203;42.672;23.334;2023-04-25T02:03:29;6.1;;;4.4;;
69917;SDS011;57203;42.672;23.334;2023-04-25T02:04:29;6.4;;;4.3;;
69917;SDS011;57203;42.672;23.334;2023-04-25T02:05:33;5.7;;;4.5;;
69917;SDS011;57203;42.672;23.334;2023-04-25T02:06:29;6.5;;;4.6;;
69917;SDS011;57203;42.672;23.334;2023-04-25T02:07:29;7.3;;;4.8;;
69917;SDS011;57203;42.672;23.334;2023-04-25T02:08:30;7.3;;;4.9;;
69917;SDS011;57203;42.672;23.334;2023-04-25T02:09:30;8.5;;;4.7;;
69917;SDS011;57203;42.672;23.334;2023-04-25T02:10:30;6.3;;;5.3;;
69917;SDS011;57203;42.672;23.334;2023-04-25T02:11:30;7.4;;;4.2;;
69917;SDS011;57203;42.672;23.334;2023-04-25T02:12:30;5.8;;;4.5;;
69917;SDS011;57203;42.672;23.334;2023-04-25T02:13:30;6.4;;;4.8;;
69917;SDS011;57203;42.672;23.334;2023-04-25T02:14:31;7.4;;;4.7;;
69917;SDS011;57203;42.672;23.334;2023-04-25T02:15:31;5.6;;;4.3;;
69917;SDS011;57203;42.672;23.334;2023-04-25T02:16:31;5.6;;;5.2;;
69917;SDS011;57203;42.672;23.334;2023-04-25T02:17:31;6.6;;;5.1;;
69917;SDS011;57203;42.672;23.334;2023-04-25T02:18:31;6.6;;;4.8;;
69917;SDS011;57203;42.672;23.334;2023-04-25T02:19:32;7.7;;;5.1;;
69917;SDS011;57203;42.672;23.334;2023-04-25T02:20:32;8.3;;;5.3;;
69917;SDS011;57203;42.672;23.334;2023-04-25T02:22:32;7.4;;;5.1;;
69917;SDS011;57203;42.672;23.334;2023-04-25T02:23:32;8.6;;;5.0;;
69917;SDS011;57203;42.672;23.334;2023-04-25T02:24:33;7.0;;;5.4;;
69917;SDS011;57203;42.672;23.334;2023-04-25T02:25:33;7.5;;;4.9;;
69917;SDS011;57203;42.672;23.334;2023-04-25T02:26:33;8.6;;;5.1;;
69917;SDS011;57203;42.672;23.334;2023-04-25T02:27:33;7.8;;;5.2;;
69917;SDS011;57203;42.672;23.334;2023-04-25T02:28:33;7.2;;;5.7;;
69917;SDS011;57203;42.672;23.334;2023-04-25T02:29:33;8.4;;;5.3;;
69917;SDS011;57203;42.672;23.334;2023-04-25T02:30:34;9.8;;;5.9;;
69917;SDS011;57203;42.672;23.334;2023-04-25T02:31:34;9.8;;;5.7;;
69917;SDS011;57203;42.672;23.334;2023-04-25T02:32:34;9.8;;;6.0;;
69917;SDS011;57203;42.672;23.334;2023-04-25T02:33:34;9.8;;;6.2;;
69917;SDS011;57203;42.672;23.334;2023-04-25T02:34:34;9.3;;;5.5;;
69917;SDS011;57203;42.672;23.334;2023-04-25T02:35:35;8.1;;;6.2;;
69917;SDS011;57203;42.672;23.334;2023-04-25T02:36:35;8.0;;;5.8;;
69917;SDS011;57203;42.672;23.334;2023-04-25T02:37:36;9.2;;;5.5;;
69917;SDS011;57203;42.672;23.334;2023-04-25T02:38:35;9.2;;;6.1;;
69917;SDS011;57203;42.672;23.334;2023-04-25T02:39:35;9.5;;;5.9;;
69917;SDS011;57203;42.672;23.334;2023-04-25T02:40:35;8.3;;;5.6;;
69917;SDS011;57203;42.672;23.334;2023-04-25T02:41:36;8.3;;;6.5;;
69917;SDS011;57203;42.672;23.334;2023-04-25T02:42:36;10.6;;;6.4;;
69917;SDS011;57203;42.672;23.334;2023-04-25T02:43:36;10.2;;;6.2;;
69917;SDS011;57203;42.672;23.334;2023-04-25T02:44:36;9.0;;;6.4;;
69917;SDS011;57203;42.672;23.334;2023-04-25T02:45:36;9.7;;;6.0;;
69917;SDS011;57203;42.672;23.334;2023-04-25T02:46:36;10.0;;;6.1;;
69917;SDS011;57203;42.672;23.334;2023-04-25T02:49:37;9.5;;;6.0;;
69917;SDS011;57203;42.672;23.334;2023-04-25T02:50:37;11.1;;;6.3;;
69917;SDS011;57203;42.672;23.334;2023-04-25T02:51:37;10.5;;;6.7;;
69917;SDS011;57203;42.672;23.334;2023-04-25T02:52:38;10.6;;;6.3;;
69917;SDS011;57203;42.672;23.334;2023-04-25T02:53:38;10.2;;;6.2;;
69917;SDS011;57203;42.672;23.334;2023-04-25T02:54:38;10.4;;;6.6;;
69917;SDS011;57203;42.672;23.334;2023-04-25T02:55:38;10.5;;;5.7;;
69917;SDS011;57203;42.672;23.334;2023-04-25T02:56:38;10.3;;;6.1;;
69917;SDS011;57203;42.672;23.334;2023-04-25T02:58:39;9.1;;;6.2;;
69917;SDS011;57203;42.672;23.334;2023-04-25T02:59:39;9.8;;;6.1;;
69917;SDS011;57203;42.672;23.334;2023-04-25T03:00:39;7.8;;;5.6;;
69917;SDS011;57203;42.672;23.334;2023-04-25T03:01:39;9.4;;;6.1;;
69917;SDS011;57203;42.672;23.334;2023-04-25T03:04:40;9.8;;;6.0;;
69917;SDS011;57203;42.672;23.334;2023-04-25T03:05:40;9.8;;;5.9;;
69917;SDS011;57203;42.672;23.334;2023-04-25T03:06:40;8.3;;;5.8;;
69917;SDS011;57203;42.672;23.334;2023-04-25T03:07:40;8.3;;;6.4;;
69917;SDS011;57203;42.672;23.334;2023-04-25T03:08:41;10.5;;;5.8;;
69917;SDS011;57203;42.672;23.334;2023-04-25T03:09:41;9.4;;;6.2;;
69917;SDS011;57203;42.672;23.334;2023-04-25T03:10:41;9.1;;;6.6;;
69917;SDS011;57203;42.672;23.334;2023-04-25T03:12:41;10.3;;;6.3;;
69917;SDS011;57203;42.672;23.334;2023-04-25T03:13:41;10.4;;;7.0;;
69917;SDS011;57203;42.672;23.334;2023-04-25T03:14:42;11.0;;;6.3;;
69917;SDS011;57203;42.672;23.334;2023-04-25T03:15:42;10.2;;;6.7;;
69917;SDS011;57203;42.672;23.334;2023-04-25T03:16:42;11.0;;;7.2;;
69917;SDS011;57203;42.672;23.334;2023-04-25T03:17:42;11.0;;;6.9;;
69917;SDS011;57203;42.672;23.334;2023-04-25T03:18:42;10.9;;;6.3;;
69917;SDS011;57203;42.672;23.334;2023-04-25T03:19:43;9.9;;;6.6;;
69917;SDS011;57203;42.672;23.334;2023-04-25T03:20:43;11.7;;;6.8;;
69917;SDS011;57203;42.672;23.334;2023-04-25T03:21:43;11.8;;;7.2;;
69917;SDS011;57203;42.672;23.334;2023-04-25T03:22:43;11.8;;;6.8;;
69917;SDS011;57203;42.672;23.334;2023-04-25T03:23:43;10.2;;;6.4;;
69917;SDS011;57203;42.672;23.334;2023-04-25T03:24:44;9.7;;;6.7;;
69917;SDS011;57203;42.672;23.334;2023-04-25T03:25:44;11.7;;;6.9;;
69917;SDS011;57203;42.672;23.334;2023-04-25T03:26:44;11.2;;;6.6;;
69917;SDS011;57203;42.672;23.334;2023-04-25T03:27:44;9.8;;;6.3;;
69917;SDS011;57203;42.672;23.334;2023-04-25T03:28:44;9.8;;;6.5;;
69917;SDS011;57203;42.672;23.334;2023-04-25T03:29:44;10.5;;;6.4;;
69917;SDS011;57203;42.672;23.334;2023-04-25T03:33:45;11.3;;;6.3;;
69917;SDS011;57203;42.672;23.334;2023-04-25T03:34:45;10.2;;;7.4;;
69917;SDS011;57203;42.672;23.334;2023-04-25T03:35:46;10.9;;;6.7;;
69917;SDS011;57203;42.672;23.334;2023-04-25T03:36:46;10.9;;;6.8;;
69917;SDS011;57203;42.672;23.334;2023-04-25T03:37:46;12.2;;;6.9;;
69917;SDS011;57203;42.672;23.334;2023-04-25T03:38:46;11.9;;;7.7;;
69917;SDS011;57203;42.672;23.334;2023-04-25T03:39:46;10.8;;;7.0;;
69917;SDS011;57203;42.672;23.334;2023-04-25T03:40:47;10.8;;;6.7;;
69917;SDS011;57203;42.672;23.334;2023-04-25T03:41:47;10.7;;;6.4;;
69917;SDS011;57203;42.672;23.334;2023-04-25T03:42:47;9.5;;;6.5;;
69917;SDS011;57203;42.672;23.334;2023-04-25T03:43:47;10.4;;;6.6;;
69917;SDS011;57203;42.672;23.334;2023-04-25T03:44:47;11.0;;;6.5;;
69917;SDS011;57203;42.672;23.334;2023-04-25T03:45:47;10.1;;;6.3;;
69917;SDS011;57203;42.672;23.334;2023-04-25T03:46:48;9.5;;;6.2;;
69917;SDS011;57203;42.672;23.334;2023-04-25T03:47:48;9.5;;;6.1;;
69917;SDS011;57203;42.672;23.334;2023-04-25T03:48:48;9.0;;;6.8;;
69917;SDS011;57203;42.672;23.334;2023-04-25T03:49:48;11.1;;;7.3;;
69917;SDS011;57203;42.672;23.334;2023-04-25T03:51:49;12.8;;;7.2;;
69917;SDS011;57203;42.672;23.334;2023-04-25T03:52:49;11.7;;;7.8;;
69917;SDS011;57203;42.672;23.334;2023-04-25T03:53:49;11.6;;;6.9;;
69917;SDS011;57203;42.672;23.334;2023-04-25T03:54:49;11.9;;;6.8;;
69917;SDS011;57203;42.672;23.334;2023-04-25T03:55:49;11.9;;;7.3;;
69917;SDS011;57203;42.672;23.334;2023-04-25T03:56:50;11.5;;;7.0;;
69917;SDS011;57203;42.672;23.334;2023-04-25T03:57:50;12.1;;;7.5;;
69917;SDS011;57203;42.672;23.334;2023-04-25T03:58:50;12.8;;;7.1;;
69917;SDS011;57203;42.672;23.334;2023-04-25T03:59:50;12.2;;;6.8;;
69917;SDS011;57203;42.672;23.334;2023-04-25T04:00:50;11.4;;;7.2;;
69917;SDS011;57203;42.672;23.334;2023-04-25T04:02:51;11.6;;;7.3;;
69917;SDS011;57203;42.672;23.334;2023-04-25T04:03:51;12.2;;;7.4;;
69917;SDS011;57203;42.672;23.334;2023-04-25T04:04:51;13.2;;;7.7;;
69917;SDS011;57203;42.672;23.334;2023-04-25T04:05:51;14.1;;;7.6;;
69917;SDS011;57203;42.672;23.334;2023-04-25T04:06:52;12.1;;;7.1;;
69917;SDS011;57203;42.672;23.334;2023-04-25T04:07:52;11.4;;;8.1;;
69917;SDS011;57203;42.672;23.334;2023-04-25T04:08:52;13.3;;;8.2;;
69917;SDS011;57203;42.672;23.334;2023-04-25T04:09:52;12.7;;;8.3;;
69917;SDS011;57203;42.672;23.334;2023-04-25T04:10:52;13.0;;;8.2;;
69917;SDS011;57203;42.672;23.334;2023-04-25T04:11:52;13.3;;;8.0;;
69917;SDS011;57203;42.672;23.334;2023-04-25T04:14:53;13.4;;;8.5;;
69917;SDS011;57203;42.672;23.334;2023-04-25T04:16:53;13.2;;;9.7;;
69917;SDS011;57203;42.672;23.334;2023-04-25T04:17:54;18.1;;;11.3;;
69917;SDS011;57203;42.672;23.334;2023-04-25T04:18:54;19.6;;;8.9;;
69917;SDS011;57203;42.672;23.334;2023-04-25T04:20:54;15.7;;;8.5;;
69917;SDS011;57203;42.672;23.334;2023-04-25T04:21:54;14.7;;;8.8;;
69917;SDS011;57203;42.672;23.334;2023-04-25T04:22:54;14.6;;;8.5;;
69917;SDS011;57203;42.672;23.334;2023-04-25T04:23:55;14.1;;;7.8;;
69917;SDS011;57203;42.672;23.334;2023-04-25T04:24:55;12.9;;;8.9;;
69917;SDS011;57203;42.672;23.334;2023-04-25T04:25:55;15.5;;;8.1;;
69917;SDS011;57203;42.672;23.334;2023-04-25T04:26:55;13.4;;;8.0;;
69917;SDS011;57203;42.672;23.334;2023-04-25T04:27:55;13.2;;;8.3;;
69917;SDS011;57203;42.672;23.334;2023-04-25T04:28:56;13.3;;;7.5;;
69917;SDS011;57203;42.672;23.334;2023-04-25T04:29:56;13.3;;;7.3;;
69917;SDS011;57203;42.672;23.334;2023-04-25T04:30:56;12.6;;;8.4;;
69917;SDS011;57203;42.672;23.334;2023-04-25T04:31:56;13.3;;;8.3;;
69917;SDS011;57203;42.672;23.334;2023-04-25T04:33:56;13.4;;;8.1;;
69917;SDS011;57203;42.672;23.334;2023-04-25T04:34:57;13.4;;;7.8;;
69917;SDS011;57203;42.672;23.334;2023-04-25T04:35:57;11.1;;;8.3;;
69917;SDS011;57203;42.672;23.334;2023-04-25T04:36:57;12.6;;;8.1;;
69917;SDS011;57203;42.672;23.334;2023-04-25T04:37:57;13.2;;;8.2;;
69917;SDS011;57203;42.672;23.334;2023-04-25T04:38:57;13.4;;;7.3;;
69917;SDS011;57203;42.672;23.334;2023-04-25T04:39:58;11.5;;;7.7;;
69917;SDS011;57203;42.672;23.334;2023-04-25T04:40:58;14.6;;;7.3;;
69917;SDS011;57203;42.672;23.334;2023-04-25T04:41:58;12.1;;;6.9;;
69917;SDS011;57203;42.672;23.334;2023-04-25T04:42:58;11.1;;;7.2;;
69917;SDS011;57203;42.672;23.334;2023-04-25T04:43:58;12.3;;;7.5;;
69917;SDS011;57203;42.672;23.334;2023-04-25T04:44:59;10.9;;;7.1;;
69917;SDS011;57203;42.672;23.334;2023-04-25T04:46:00;10.9;;;6.6;;
69917;SDS011;57203;42.672;23.334;2023-04-25T04:46:59;9.7;;;7.9;;
69917;SDS011;57203;42.672;23.334;2023-04-25T04:47:59;12.8;;;7.1;;
69917;SDS011;57203;42.672;23.334;2023-04-25T04:48:59;10.7;;;7.4;;
69917;SDS011;57203;42.672;23.334;2023-04-25T04:50:00;11.8;;;7.5;;
69917;SDS011;57203;42.672;23.334;2023-04-25T04:51:00;11.4;;;7.2;;
69917;SDS011;57203;42.672;23.334;2023-04-25T04:52:00;11.2;;;7.4;;
69917;SDS011;57203;42.672;23.334;2023-04-25T04:53:01;11.5;;;7.9;;
69917;SDS011;57203;42.672;23.334;2023-04-25T04:54:00;11.5;;;7.5;;
69917;SDS011;57203;42.672;23.334;2023-04-25T04:55:01;11.4;;;7.2;;
69917;SDS011;57203;42.672;23.334;2023-04-25T04:56:01;10.1;;;7.7;;
69917;SDS011;57203;42.672;23.334;2023-04-25T04:57:01;13.0;;;8.4;;
69917;SDS011;57203;42.672;23.334;2023-04-25T04:58:01;12.4;;;7.9;;
69917;SDS011;57203;42.672;23.334;2023-04-25T04:59:01;12.1;;;8.2;;
69917;SDS011;57203;42.672;23.334;2023-04-25T05:00:02;10.8;;;7.9;;
69917;SDS011;57203;42.672;23.334;2023-04-25T05:01:02;10.8;;;7.7;;
69917;SDS011;57203;42.672;23.334;2023-04-25T05:02:02;12.2;;;7.8;;
69917;SDS011;57203;42.672;23.334;2023-04-25T05:03:02;11.4;;;9.1;;
69917;SDS011;57203;42.672;23.334;2023-04-25T05:04:02;12.6;;;8.6;;
69917;SDS011;57203;42.672;23.334;2023-04-25T05:05:03;12.5;;;9.0;;
69917;SDS011;57203;42.672;23.334;2023-04-25T05:06:03;12.5;;;9.2;;
69917;SDS011;57203;42.672;23.334;2023-04-25T05:07:03;13.8;;;9.4;;
69917;SDS011;57203;42.672;23.334;2023-04-25T05:08:03;13.8;;;9.8;;
69917;SDS011;57203;42.672;23.334;2023-04-25T05:09:03;14.3;;;9.4;;
69917;SDS011;57203;42.672;23.334;2023-04-25T05:10:04;14.6;;;9.2;;
69917;SDS011;57203;42.672;23.334;2023-04-25T05:11:04;13.6;;;9.3;;
69917;SDS011;57203;42.672;23.334;2023-04-25T05:12:04;13.6;;;9.0;;
69917;SDS011;57203;42.672;23.334;2023-04-25T05:13:04;13.6;;;8.7;;
69917;SDS011;57203;42.672;23.334;2023-04-25T05:14:04;13.0;;;9.1;;
69917;SDS011;57203;42.672;23.334;2023-04-25T05:15:05;12.6;;;9.3;;
69917;SDS011;57203;42.672;23.334;2023-04-25T05:16:05;13.0;;;9.5;;
69917;SDS011;57203;42.672;23.334;2023-04-25T05:17:05;14.3;;;8.7;;
69917;SDS011;57203;42.672;23.334;2023-04-25T05:18:05;12.0;;;8.5;;
69917;SDS011;57203;42.672;23.334;2023-04-25T05:19:05;12.0;;;9.5;;
69917;SDS011;57203;42.672;23.334;2023-04-25T05:20:06;12.6;;;8.8;;
69917;SDS011;57203;42.672;23.334;2023-04-25T05:21:06;12.6;;;9.1;;
69917;SDS011;57203;42.672;23.334;2023-04-25T05:22:06;14.0;;;8.8;;
69917;SDS011;57203;42.672;23.334;2023-04-25T05:23:08;13.3;;;10.4;;
69917;SDS011;57203;42.672;23.334;2023-04-25T05:24:06;14.0;;;9.2;;
69917;SDS011;57203;42.672;23.334;2023-04-25T05:25:07;14.0;;;9.3;;
69917;SDS011;57203;42.672;23.334;2023-04-25T05:26:07;13.1;;;10.1;;
69917;SDS011;57203;42.672;23.334;2023-04-25T05:27:07;14.5;;;9.8;;
69917;SDS011;57203;42.672;23.334;2023-04-25T05:28:07;15.2;;;9.7;;
69917;SDS011;57203;42.672;23.334;2023-04-25T05:29:07;14.5;;;10.5;;
69917;SDS011;57203;42.672;23.334;2023-04-25T05:30:08;14.5;;;10.8;;
69917;SDS011;57203;42.672;23.334;2023-04-25T05:31:08;15.3;;;10.5;;
69917;SDS011;57203;42.672;23.334;2023-04-25T05:32:08;14.1;;;10.3;;
69917;SDS011;57203;42.672;23.334;2023-04-25T05:33:08;13.9;;;11.0;;
69917;SDS011;57203;42.672;23.334;2023-04-25T05:34:08;15.6;;;11.1;;
69917;SDS011;57203;42.672;23.334;2023-04-25T05:36:09;14.9;;;10.6;;
69917;SDS011;57203;42.672;23.334;2023-04-25T05:37:09;15.5;;;11.8;;
69917;SDS011;57203;42.672;23.334;2023-04-25T05:38:09;17.9;;;11.6;;
69917;SDS011;57203;42.672;23.334;2023-04-25T05:39:09;17.6;;;11.4;;
69917;SDS011;57203;42.672;23.334;2023-04-25T05:41:10;15.6;;;10.6;;
69917;SDS011;57203;42.672;23.334;2023-04-25T05:42:10;15.6;;;11.5;;
69917;SDS011;57203;42.672;23.334;2023-04-25T05:43:10;16.6;;;10.7;;
69917;SDS011;57203;42.672;23.334;2023-04-25T05:44:10;16.6;;;10.0;;
69917;SDS011;57203;42.672;23.334;2023-04-25T05:45:10;15.2;;;9.3;;
69917;SDS011;57203;42.672;23.334;2023-04-25T05:46:11;14.2;;;9.4;;
69917;SDS011;57203;42.672;23.334;2023-04-25T05:47:11;14.2;;;9.8;;
69917;SDS011;57203;42.672;23.334;2023-04-25T05:48:11;14.5;;;9.5;;
69917;SDS011;57203;42.672;23.334;2023-04-25T05:49:11;14.5;;;9.6;;
69917;SDS011;57203;42.672;23.334;2023-04-25T05:50:11;14.2;;;9.4;;
69917;SDS011;57203;42.672;23.334;2023-04-25T05:51:11;14.2;;;9.7;;
69917;SDS011;57203;42.672;23.334;2023-04-25T05:52:12;14.6;;;9.1;;
69917;SDS011;57203;42.672;23.334;2023-04-25T05:54:12;13.1;;;9.2;;
69917;SDS011;57203;42.672;23.334;2023-04-25T05:55:12;13.1;;;9.3;;
69917;SDS011;57203;42.672;23.334;2023-04-25T05:57:18;12.6;;;8.9;;
69917;SDS011;57203;42.672;23.334;2023-04-25T05:58:13;13.0;;;9.9;;
69917;SDS011;57203;42.672;23.334;2023-04-25T05:59:13;15.9;;;9.5;;
69917;SDS011;57203;42.672;23.334;2023-04-25T06:00:13;15.9;;;8.6;;
69917;SDS011;57203;42.672;23.334;2023-04-25T06:01:13;12.7;;;8.8;;
69917;SDS011;57203;42.672;23.334;2023-04-25T06:02:14;14.1;;;9.2;;
69917;SDS011;57203;42.672;23.334;2023-04-25T06:03:14;14.3;;;8.6;;
69917;SDS011;57203;42.672;23.334;2023-04-25T06:04:14;16.3;;;8.7;;
69917;SDS011;57203;42.672;23.334;2023-04-25T06:05:14;13.4;;;7.6;;
69917;SDS011;57203;42.672;23.334;2023-04-25T06:06:14;12.1;;;8.0;;
69917;SDS011;57203;42.672;23.334;2023-04-25T06:07:15;11.0;;;7.7;;
69917;SDS011;57203;42.672;23.334;2023-04-25T06:08:15;10.8;;;7.8;;
69917;SDS011;57203;42.672;23.334;2023-04-25T06:09:15;10.9;;;7.5;;
69917;SDS011;57203;42.672;23.334;2023-04-25T06:10:15;10.7;;;6.9;;
69917;SDS011;57203;42.672;23.334;2023-04-25T06:11:15;8.8;;;6.6;;
69917;SDS011;57203;42.672;23.334;2023-04-25T06:14:16;10.7;;;6.4;;
69917;SDS011;57203;42.672;23.334;2023-04-25T06:15:16;8.2;;;6.5;;
69917;SDS011;57203;42.672;23.334;2023-04-25T06:16:16;10.1;;;6.9;;
69917;SDS011;57203;42.672;23.334;2023-04-25T06:17:16;10.5;;;6.3;;
69917;SDS011;57203;42.672;23.334;2023-04-25T06:18:17;8.3;;;7.2;;
69917;SDS011;57203;42.672;23.334;2023-04-25T06:19:17;13.0;;;6.3;;
69917;SDS011;57203;42.672;23.334;2023-04-25T06:20:17;9.3;;;6.7;;
69917;SDS011;57203;42.672;23.334;2023-04-25T06:22:18;12.0;;;6.8;;
69917;SDS011;57203;42.672;23.334;2023-04-25T06:24:18;10.6;;;6.5;;
69917;SDS011;57203;42.672;23.334;2023-04-25T06:25:18;9.0;;;6.7;;
69917;SDS011;57203;42.672;23.334;2023-04-25T06:26:18;12.5;;;5.7;;
69917;SDS011;57203;42.672;23.334;2023-04-25T06:27:18;8.1;;;6.0;;
69917;SDS011;57203;42.672;23.334;2023-04-25T06:28:19;9.4;;;5.4;;
69917;SDS011;57203;42.672;23.334;2023-04-25T06:29:19;9.4;;;5.6;;
69917;SDS011;57203;42.672;23.334;2023-04-25T06:30:19;7.8;;;5.8;;
69917;SDS011;57203;42.672;23.334;2023-04-25T06:31:19;8.3;;;6.2;;
69917;SDS011;57203;42.672;23.334;2023-04-25T06:32:19;8.9;;;6.3;;
69917;SDS011;57203;42.672;23.334;2023-04-25T06:33:20;10.6;;;6.2;;
69917;SDS011;57203;42.672;23.334;2023-04-25T06:34:20;8.1;;;5.7;;
69917;SDS011;57203;42.672;23.334;2023-04-25T06:35:20;8.1;;;5.6;;
69917;SDS011;57203;42.672;23.334;2023-04-25T06:36:20;8.3;;;5.8;;
69917;SDS011;57203;42.672;23.334;2023-04-25T06:37:20;7.8;;;5.7;;